Airfield :







YOU CAN JOIN US ON...

 
LOGIN :

Register | Disclaimer

   EN    FR    IT 

 









Legend :    VFR   Marginal VFR   IFR   Intensive IFR   Very Intensive IFR
Visi :
Ceiling :
>= 8 km
>= 3000ft
5 to 8 km
1000 to 3000 ft
1500m to 5 km
500 to 1000 ft
800 to 1500m
200 to 500 ft
< 800m
< 200 ft
Symbols :   Thunderstorms  Fog  Heavy snow  Heavy precipitations  Wind > 20 kt







- Airport Elevation : 76 ft
- IATA code : PWM


KPWM - Portland International Jetport

CURRENT METAR :
  • 161351Z 29003KT 10SM SCT250 17/08 A3004 RMK AO2 SLP174 T01670078

EXPIRED METARs :
  • 161251Z 23003KT 10SM SCT150 BKN250 15/08 A3006 RMK AO2 SLP178 T01500083
  • 161151Z 25005KT 10SM SCT150 OVC250 14/08 A3005 RMK AO2 SLP177 T01390078 10167 20122 51014

TAF KPWM
Valid from the 16 at 12:00 until the 17 at 12:00 UTC


161120Z 1612/1712 31005KT P6SM SCT060
FM161400 30009G15KT P6SM SCT045
FM162300 32007KT P6SM SCT100
No reported NOTAMs for that airfield.



MET'MAP, your aeronautical weather chart ! - Copyright ORBIFLY December 2007 - Disclaimer

ORBIFLY MET'MAP TEAM :

Programming & Development : Alexandra Zaïnal
Concept & Development : Baudouin d'Aumeries
Co-Development & Prog : Marc-Olivier Méhu
Technical & hardware support : Manuel Goepfert

Contact : metmap@orbifly.com




SOURCES & CREDITS :

   NOAA